createdAt,value
2022-12-18T00:02:35.622Z,64.40
2022-12-18T00:06:37.258Z,66.60
2022-12-18T00:10:38.185Z,37.80
2022-12-18T00:14:39.275Z,47.70
2022-12-18T00:18:43.191Z,49.10
2022-12-18T00:22:44.367Z,42.53
2022-12-18T00:26:45.519Z,41.97
2022-12-18T00:30:46.780Z,45.20
2022-12-18T00:34:47.866Z,41.83
2022-12-18T00:38:48.830Z,41.70
2022-12-18T00:42:56.146Z,39.50
2022-12-18T00:46:57.036Z,39.43
2022-12-18T00:50:58.345Z,48.07
2022-12-18T00:55:04.494Z,45.40
2022-12-18T00:59:02.222Z,49.93
2022-12-18T01:03:04.361Z,39.13
2022-12-18T01:07:05.618Z,52.57
2022-12-18T01:11:12.688Z,40.37
2022-12-18T01:15:14.959Z,43.80
2022-12-18T01:19:16.358Z,29.67
2022-12-18T01:23:18.407Z,36.17
2022-12-18T01:27:19.489Z,34.60
2022-12-18T01:31:23.421Z,40.17
2022-12-18T01:35:24.567Z,37.80
2022-12-18T01:39:25.644Z,35.43
2022-12-18T01:43:46.802Z,45.43
2022-12-18T01:47:54.890Z,38.00
2022-12-18T01:51:55.849Z,41.07
2022-12-18T01:55:58.070Z,34.30
2022-12-18T02:00:06.075Z,35.10
2022-12-18T02:04:26.076Z,38.30
2022-12-18T02:08:33.704Z,36.60
2022-12-18T02:12:38.493Z,37.30
2022-12-18T02:16:43.407Z,33.60
2022-12-18T02:20:48.265Z,32.23
2022-12-18T02:25:04.785Z,33.20
2022-12-18T02:29:12.515Z,34.27
2022-12-18T02:33:14.655Z,37.13
2022-12-18T02:37:18.657Z,34.80
2022-12-18T02:41:20.246Z,40.17
2022-12-18T02:45:21.371Z,40.03
2022-12-18T02:49:44.094Z,37.53
2022-12-18T02:54:05.554Z,40.47
2022-12-18T02:58:13.170Z,34.53
2022-12-18T03:02:24.325Z,40.13
2022-12-18T03:06:29.142Z,37.07
2022-12-18T03:10:33.790Z,39.37
2022-12-18T03:14:36.791Z,40.00
2022-12-18T03:18:44.790Z,42.03
2022-12-18T03:22:49.523Z,40.37
2022-12-18T03:26:57.462Z,38.03
2022-12-18T03:31:01.537Z,41.00
2022-12-18T03:35:05.495Z,44.90
2022-12-18T03:39:06.765Z,41.93
2022-12-18T03:43:11.682Z,43.87
2022-12-18T03:47:31.692Z,36.07
2022-12-18T03:51:51.393Z,33.13
2022-12-18T03:55:53.412Z,42.20
2022-12-18T04:00:01.501Z,43.00
2022-12-18T04:04:04.177Z,43.47
2022-12-18T04:08:05.757Z,51.27
2022-12-18T04:12:06.954Z,51.03
2022-12-18T04:16:09.835Z,49.90
2022-12-18T04:20:11.706Z,49.10
2022-12-18T04:24:12.862Z,45.73
2022-12-18T04:28:17.972Z,45.17
2022-12-18T04:32:21.760Z,45.10
2022-12-18T04:36:22.905Z,45.30
2022-12-18T04:40:26.025Z,45.07
2022-12-18T04:44:27.154Z,43.30
2022-12-18T04:48:29.099Z,47.33
2022-12-18T04:52:33.079Z,44.33
2022-12-18T04:56:35.063Z,45.83
2022-12-18T05:00:36.273Z,41.77
2022-12-18T05:04:38.322Z,47.73
2022-12-18T05:08:39.279Z,44.63
2022-12-18T05:12:42.334Z,41.93
2022-12-18T05:16:43.333Z,43.27
2022-12-18T05:20:45.169Z,42.53
2022-12-18T05:24:46.312Z,42.73
2022-12-18T05:28:47.553Z,44.73
2022-12-18T05:32:48.516Z,43.90
2022-12-18T05:36:49.646Z,50.40
2022-12-18T05:40:51.764Z,43.87
2022-12-18T05:44:52.782Z,45.47
2022-12-18T05:48:53.909Z,47.70
2022-12-18T05:52:54.891Z,50.67
2022-12-18T05:56:56.143Z,45.57
2022-12-18T06:00:58.003Z,42.87
2022-12-18T06:04:59.009Z,53.90
2022-12-18T06:09:01.748Z,60.33
2022-12-18T06:13:02.903Z,53.93
2022-12-18T06:17:04.079Z,49.20
2022-12-18T06:21:05.353Z,69.13
2022-12-18T06:25:07.575Z,60.63
2022-12-18T06:29:09.190Z,53.57
2022-12-18T06:33:10.396Z,52.10
2022-12-18T06:37:11.640Z,48.13
2022-12-18T06:41:15.508Z,51.70
2022-12-18T06:45:16.826Z,63.13
2022-12-18T06:49:20.366Z,45.07
2022-12-18T06:53:21.694Z,53.33
2022-12-18T06:57:22.675Z,46.23
2022-12-18T07:01:24.023Z,51.97
2022-12-18T07:05:25.308Z,48.33
2022-12-18T07:09:26.514Z,55.57
2022-12-18T07:13:27.907Z,55.07
2022-12-18T07:17:30.090Z,49.57
2022-12-18T07:21:31.293Z,55.10
2022-12-18T07:25:36.364Z,55.13
2022-12-18T07:29:37.551Z,58.17
2022-12-18T07:33:39.460Z,58.23
2022-12-18T07:37:40.868Z,48.57
2022-12-18T07:41:47.371Z,59.27
2022-12-18T07:45:51.053Z,49.90
2022-12-18T07:49:52.406Z,50.80
2022-12-18T07:53:53.528Z,71.27
2022-12-18T07:57:59.372Z,60.90
2022-12-18T08:01:57.769Z,67.70
2022-12-18T08:06:03.541Z,67.53
2022-12-18T08:10:05.293Z,47.20
2022-12-18T08:14:08.955Z,54.93
2022-12-18T08:18:14.401Z,48.90
2022-12-18T08:22:14.715Z,43.37
2022-12-18T08:26:16.507Z,47.90
2022-12-18T08:30:17.548Z,48.17
2022-12-18T08:34:18.939Z,39.60
2022-12-18T08:38:19.876Z,44.70
2022-12-18T08:42:39.132Z,48.17
2022-12-18T08:46:42.208Z,43.37
2022-12-18T08:50:43.347Z,43.27
2022-12-18T08:54:44.485Z,60.30
2022-12-18T08:58:45.651Z,41.80
2022-12-18T09:02:47.028Z,53.27
2022-12-18T09:06:48.385Z,38.23
2022-12-18T09:10:50.828Z,46.63
2022-12-18T09:14:52.082Z,40.20
2022-12-18T09:18:55.176Z,40.67
2022-12-18T09:22:56.331Z,39.00
2022-12-18T09:26:58.175Z,35.97
2022-12-18T09:30:59.516Z,42.03
2022-12-18T09:35:02.689Z,37.50
2022-12-18T09:39:08.273Z,39.67
2022-12-18T09:43:09.693Z,39.97
2022-12-18T09:47:17.249Z,35.93
2022-12-18T09:51:22.167Z,42.17
2022-12-18T09:55:37.628Z,36.50
2022-12-18T09:59:42.654Z,39.77
2022-12-18T10:03:43.708Z,39.07
2022-12-18T10:07:54.670Z,44.43
2022-12-18T10:12:11.912Z,37.87
2022-12-18T10:16:22.535Z,36.90
2022-12-18T10:20:27.511Z,37.90
2022-12-18T10:24:35.623Z,44.53
2022-12-18T10:28:39.524Z,35.90
2022-12-18T10:32:41.043Z,41.80
2022-12-18T10:36:43.364Z,40.13
2022-12-18T10:40:58.477Z,38.47
2022-12-18T10:45:09.087Z,48.77
2022-12-18T10:49:32.025Z,39.57
2022-12-18T10:53:36.527Z,47.27
2022-12-18T10:57:41.027Z,46.03
2022-12-18T11:02:00.114Z,50.87
2022-12-18T11:06:10.931Z,43.57
2022-12-18T11:10:15.741Z,55.03
2022-12-18T11:14:26.208Z,52.90
2022-12-18T11:18:30.939Z,55.70
2022-12-18T11:22:35.338Z,45.73
2022-12-18T11:26:37.435Z,59.10
2022-12-18T11:30:38.408Z,58.10
2022-12-18T11:34:42.498Z,54.97
2022-12-18T11:38:45.152Z,59.03
2022-12-18T11:42:52.663Z,59.33
2022-12-18T11:46:57.754Z,57.83
2022-12-18T11:51:02.796Z,65.80
2022-12-18T11:55:16.590Z,69.33
2022-12-18T11:59:33.625Z,67.43
2022-12-18T12:03:44.905Z,59.67
2022-12-18T12:07:53.083Z,52.60
2022-12-18T12:12:00.944Z,65.77
2022-12-18T12:16:20.592Z,60.83
2022-12-18T12:20:45.163Z,65.60
2022-12-18T12:25:23.027Z,58.17
2022-12-18T12:29:44.624Z,72.00
2022-12-18T12:33:52.563Z,78.03
2022-12-18T12:38:10.109Z,63.13
2022-12-18T12:43:00.446Z,71.90
2022-12-18T12:47:05.518Z,71.37
2022-12-18T12:51:23.416Z,68.37
2022-12-18T12:55:27.349Z,67.57
2022-12-18T12:59:35.008Z,69.33
2022-12-18T13:03:57.467Z,70.83
2022-12-18T13:08:07.519Z,68.13
2022-12-18T13:12:30.240Z,72.43
2022-12-18T13:16:33.944Z,68.57
2022-12-18T13:20:38.021Z,67.67
2022-12-18T13:24:39.237Z,78.30
2022-12-18T13:28:50.452Z,71.50
2022-12-18T13:33:11.914Z,83.27
2022-12-18T13:37:34.237Z,70.13
2022-12-18T13:41:35.411Z,78.17
2022-12-18T13:45:40.436Z,72.63
2022-12-18T13:49:44.208Z,68.33
2022-12-18T13:54:01.114Z,68.47
2022-12-18T13:58:06.853Z,64.43
2022-12-18T14:02:17.761Z,69.90
2022-12-18T14:06:19.262Z,67.13
2022-12-18T14:14:32.373Z,70.60
2022-12-18T14:19:04.116Z,71.87
2022-12-18T14:23:04.914Z,73.23
2022-12-18T14:27:24.533Z,65.97
2022-12-18T14:31:28.888Z,71.07
2022-12-18T14:35:33.297Z,81.77
2022-12-18T14:39:34.335Z,69.97
2022-12-18T14:43:37.571Z,74.73
2022-12-18T14:47:39.164Z,114.37
2022-12-18T14:51:44.700Z,67.80
2022-12-18T14:55:48.545Z,68.37
2022-12-18T14:59:50.546Z,76.60
2022-12-18T15:03:53.328Z,74.90
2022-12-18T15:07:56.668Z,64.90
2022-12-18T15:12:01.863Z,87.10
2022-12-18T15:16:03.790Z,73.93
2022-12-18T15:20:08.899Z,78.43
2022-12-18T15:24:19.676Z,71.10
2022-12-18T15:28:24.920Z,76.97
2022-12-18T15:32:26.131Z,73.80
2022-12-18T15:36:27.801Z,64.57
2022-12-18T15:40:30.932Z,78.30
2022-12-18T15:44:32.439Z,67.63
2022-12-18T15:48:35.955Z,67.30
2022-12-18T15:52:43.400Z,75.50
2022-12-18T15:57:02.785Z,80.70
2022-12-18T16:01:04.253Z,72.20
2022-12-18T16:05:17.508Z,77.33
2022-12-18T16:09:23.077Z,79.40
2022-12-18T16:13:22.355Z,76.97
2022-12-18T16:17:23.910Z,79.17
2022-12-18T16:21:28.216Z,81.00
2022-12-18T16:25:29.096Z,84.63
2022-12-18T16:29:30.480Z,92.70
2022-12-18T16:33:31.567Z,82.83
2022-12-18T16:37:32.811Z,67.70
2022-12-18T16:41:34.226Z,71.27
2022-12-18T16:45:35.318Z,63.27
2022-12-18T16:49:36.867Z,65.73
2022-12-18T16:53:38.284Z,55.03
2022-12-18T16:57:39.662Z,56.77
2022-12-18T17:01:41.163Z,65.23
2022-12-18T17:05:42.685Z,68.80
2022-12-18T17:09:45.724Z,64.43
2022-12-18T17:13:47.229Z,63.67
2022-12-18T17:17:48.502Z,61.53
2022-12-18T17:21:50.699Z,67.97
2022-12-18T17:25:54.968Z,65.03
2022-12-18T17:29:56.064Z,61.77
2022-12-18T17:33:57.814Z,65.33
2022-12-18T17:37:58.793Z,50.60
2022-12-18T17:41:59.900Z,59.97
2022-12-18T17:46:06.099Z,70.23
2022-12-18T17:50:09.541Z,63.57
2022-12-18T17:54:11.082Z,57.33
2022-12-18T17:58:13.124Z,59.37
2022-12-18T18:02:15.241Z,56.77
2022-12-18T18:06:17.850Z,67.70
2022-12-18T18:10:19.077Z,62.37
2022-12-18T18:14:20.671Z,63.80
2022-12-18T18:18:21.639Z,73.17
2022-12-18T18:22:24.538Z,81.10
2022-12-18T18:26:29.538Z,66.20
2022-12-18T18:30:31.403Z,58.57
2022-12-18T18:34:33.127Z,68.57
2022-12-18T18:38:34.211Z,70.63
2022-12-18T18:42:35.912Z,71.17
2022-12-18T18:46:37.078Z,72.25
2022-12-18T18:50:38.460Z,78.07
2022-12-18T18:54:51.949Z,62.93
2022-12-18T18:58:44.298Z,63.27
2022-12-18T19:02:45.608Z,65.60
2022-12-18T19:06:48.061Z,66.42
2022-12-18T19:10:57.792Z,71.40
2022-12-18T19:14:58.858Z,66.87
2022-12-18T19:19:01.957Z,80.63
2022-12-18T19:23:03.560Z,67.57
2022-12-18T19:27:04.593Z,72.70
2022-12-18T19:31:08.740Z,60.43
2022-12-18T19:35:10.514Z,69.00
2022-12-18T19:39:14.914Z,64.73
2022-12-18T19:43:16.917Z,88.13
2022-12-18T19:47:18.446Z,79.43
2022-12-18T19:51:22.779Z,70.23
2022-12-18T19:55:24.251Z,60.80
2022-12-18T19:59:25.261Z,64.43
2022-12-18T20:03:32.164Z,54.90
2022-12-18T20:07:30.264Z,64.67
2022-12-18T20:11:33.187Z,62.87
2022-12-18T20:15:40.466Z,66.93
2022-12-18T20:19:39.711Z,61.43
2022-12-18T20:23:55.542Z,62.53
2022-12-18T20:27:48.747Z,56.80
2022-12-18T20:31:51.160Z,64.87
2022-12-18T20:35:52.626Z,66.40
2022-12-18T20:39:54.565Z,61.33
2022-12-18T20:43:57.305Z,64.27
2022-12-18T20:48:00.452Z,64.13
2022-12-18T20:52:02.502Z,72.20
2022-12-18T20:56:10.458Z,64.40
2022-12-18T21:00:13.966Z,70.63
2022-12-18T21:04:19.706Z,72.17
2022-12-18T21:08:21.328Z,70.43
2022-12-18T21:12:40.329Z,68.57
2022-12-18T21:16:46.220Z,71.73
2022-12-18T21:20:48.151Z,69.30
2022-12-18T21:24:50.312Z,75.70
2022-12-18T21:28:56.483Z,68.87
2022-12-18T21:32:57.811Z,68.90
2022-12-18T21:37:00.710Z,65.73
2022-12-18T21:41:07.591Z,69.73
2022-12-18T21:45:10.518Z,69.03
2022-12-18T21:49:22.456Z,62.03
2022-12-18T21:53:23.775Z,66.30
2022-12-18T21:57:25.014Z,62.00
2022-12-18T22:01:26.319Z,72.47
2022-12-18T22:05:29.440Z,63.87
2022-12-18T22:09:30.901Z,59.13
2022-12-18T22:13:32.117Z,65.90
2022-12-18T22:17:33.236Z,57.73
2022-12-18T22:21:37.415Z,63.93
2022-12-18T22:25:39.839Z,58.73
2022-12-18T22:29:58.062Z,67.20
2022-12-18T22:33:59.208Z,62.53
2022-12-18T22:38:04.008Z,65.40
2022-12-18T22:42:05.724Z,60.80
2022-12-18T22:46:11.167Z,57.80
2022-12-18T22:50:15.335Z,67.23
2022-12-18T22:54:16.572Z,62.27
2022-12-18T22:58:19.493Z,67.33
2022-12-18T23:02:20.867Z,56.97
2022-12-18T23:06:24.598Z,57.43
2022-12-18T23:10:25.879Z,65.80
2022-12-18T23:14:28.009Z,63.40
2022-12-18T23:18:29.159Z,62.77
2022-12-18T23:22:30.456Z,61.07
2022-12-18T23:26:34.602Z,62.20
2022-12-18T23:30:36.533Z,60.63
2022-12-18T23:39:03.981Z,64.57
2022-12-18T23:43:07.102Z,63.37
2022-12-18T23:47:08.500Z,63.90
2022-12-18T23:51:11.358Z,58.50
2022-12-18T23:55:12.504Z,66.57
2022-12-18T23:59:13.967Z,65.40
